createdAt,value
2022-11-14T00:01:21.067Z,586.25
2022-11-14T00:04:06.318Z,513.38
2022-11-14T00:06:51.820Z,502.30
2022-11-14T00:09:38.778Z,653.17
2022-11-14T00:12:24.297Z,512.55
2022-11-14T00:15:10.876Z,668.50
2022-11-14T00:17:56.333Z,567.38
2022-11-14T00:20:41.583Z,511.17
2022-11-14T00:23:26.908Z,612.67
2022-11-14T00:26:12.282Z,576.28
2022-11-14T00:28:57.940Z,602.20
2022-11-14T00:31:43.152Z,689.10
2022-11-14T00:34:28.454Z,1101.43
2022-11-14T00:37:13.731Z,910.95
2022-11-14T00:39:59.195Z,705.25
2022-11-14T00:42:44.990Z,1085.97
2022-11-14T00:45:30.248Z,1406.55
2022-11-14T00:48:16.212Z,1585.50
2022-11-14T00:51:01.745Z,1927.57
2022-11-14T00:53:47.229Z,1999.90
2022-11-14T00:56:32.617Z,1999.90
2022-11-14T00:59:17.629Z,1999.90
2022-11-14T01:02:03.211Z,1999.90
2022-11-14T01:04:48.297Z,1999.90
2022-11-14T01:07:33.799Z,1995.65
2022-11-14T01:10:19.923Z,1999.90
2022-11-14T01:13:05.387Z,1999.90
2022-11-14T01:15:50.997Z,1999.63
2022-11-14T01:21:22.360Z,1999.18
2022-11-14T01:24:07.522Z,1456.93
2022-11-14T01:26:56.292Z,1460.57
2022-11-14T01:29:42.024Z,1573.88
2022-11-14T01:32:27.823Z,1616.75
2022-11-14T01:35:13.548Z,1511.50
2022-11-14T01:37:58.954Z,1358.18
2022-11-14T01:40:45.801Z,962.13
2022-11-14T01:43:36.605Z,867.22
2022-11-14T01:46:33.880Z,1111.22
2022-11-14T01:49:27.113Z,1136.07
2022-11-14T01:52:26.858Z,674.67
2022-11-14T01:55:12.246Z,664.95
2022-11-14T01:57:58.276Z,699.92
2022-11-14T02:00:44.689Z,654.95
2022-11-14T02:03:30.423Z,643.67
2022-11-14T02:06:19.854Z,708.72
2022-11-14T02:09:07.280Z,781.78
2022-11-14T02:11:55.272Z,644.50
2022-11-14T02:14:42.321Z,856.60
2022-11-14T02:17:30.683Z,629.55
2022-11-14T02:20:28.745Z,760.88
2022-11-14T02:23:14.001Z,796.55
2022-11-14T02:25:59.794Z,665.92
2022-11-14T02:28:45.350Z,771.65
2022-11-14T02:34:20.079Z,777.13
2022-11-14T02:37:05.624Z,586.15
2022-11-14T02:39:50.898Z,569.10
2022-11-14T02:42:36.412Z,652.05
2022-11-14T02:45:21.808Z,603.47
2022-11-14T02:48:07.449Z,477.15
2022-11-14T02:50:52.708Z,499.33
2022-11-14T02:53:38.205Z,417.27
2022-11-14T02:56:23.943Z,489.02
2022-11-14T02:59:09.188Z,474.27
2022-11-14T03:01:54.563Z,573.90
2022-11-14T03:04:39.955Z,553.83
2022-11-14T03:07:25.059Z,498.25
2022-11-14T03:10:11.320Z,514.75
2022-11-14T03:12:57.748Z,505.38
2022-11-14T03:15:43.113Z,544.33
2022-11-14T03:18:28.774Z,437.45
2022-11-14T03:21:17.615Z,394.73
2022-11-14T03:24:03.305Z,253.45
2022-11-14T03:26:48.960Z,417.85
2022-11-14T03:29:34.551Z,362.30
2022-11-14T03:32:20.102Z,376.55
2022-11-14T03:35:05.950Z,238.05
2022-11-14T03:37:55.222Z,365.02
2022-11-14T03:40:41.796Z,383.33
2022-11-14T03:43:34.300Z,365.05
2022-11-14T03:46:19.444Z,370.70
2022-11-14T03:49:05.200Z,380.77
2022-11-14T03:51:51.057Z,545.35
2022-11-14T03:57:21.743Z,323.88
2022-11-14T04:00:08.196Z,331.60
2022-11-14T04:02:55.051Z,387.63
2022-11-14T04:05:45.305Z,223.95
2022-11-14T04:08:31.050Z,303.15
2022-11-14T04:14:02.082Z,443.50
2022-11-14T04:16:47.371Z,354.92
2022-11-14T04:19:32.434Z,282.83
2022-11-14T04:22:17.944Z,181.15
2022-11-14T04:25:03.606Z,308.88
2022-11-14T04:27:48.783Z,471.20
2022-11-14T04:30:34.961Z,383.45
2022-11-14T04:33:20.731Z,292.83
2022-11-14T04:36:06.595Z,364.02
2022-11-14T04:38:51.994Z,424.63
2022-11-14T04:41:37.389Z,371.73
2022-11-14T04:44:22.567Z,314.52
2022-11-14T04:47:08.267Z,362.95
2022-11-14T04:49:53.529Z,458.73
2022-11-14T04:52:38.640Z,347.55
2022-11-14T04:55:23.997Z,244.55
2022-11-14T04:58:09.420Z,317.42
2022-11-14T05:00:57.145Z,320.85
2022-11-14T05:03:42.801Z,289.30
2022-11-14T05:06:28.054Z,307.90
2022-11-14T05:09:13.477Z,584.90
2022-11-14T05:11:58.772Z,505.38
2022-11-14T05:14:44.095Z,348.80
2022-11-14T05:17:29.527Z,405.05
2022-11-14T05:20:15.070Z,298.15
2022-11-14T05:23:00.360Z,250.23
2022-11-14T05:25:45.407Z,217.20
2022-11-14T05:28:31.601Z,148.70
2022-11-14T05:31:18.149Z,65.63
2022-11-14T05:34:03.488Z,66.97
2022-11-14T05:36:48.728Z,64.13
2022-11-14T05:39:33.973Z,46.33
2022-11-14T05:42:19.429Z,68.07
2022-11-14T05:45:05.376Z,126.20
2022-11-14T05:47:54.045Z,400.77
2022-11-14T05:50:39.169Z,313.60
2022-11-14T05:53:24.462Z,227.88
2022-11-14T05:56:12.098Z,283.98
2022-11-14T05:58:57.476Z,179.63
2022-11-14T06:01:42.828Z,95.63
2022-11-14T06:04:28.106Z,42.00
2022-11-14T06:07:18.826Z,33.85
2022-11-14T06:10:05.742Z,70.13
2022-11-14T06:15:36.482Z,33.83
2022-11-14T06:18:21.752Z,45.67
2022-11-14T06:21:15.916Z,22.20
2022-11-14T06:24:01.149Z,19.17
2022-11-14T06:26:46.541Z,20.63
2022-11-14T06:29:35.520Z,17.80
2022-11-14T06:32:21.166Z,21.25
2022-11-14T06:35:08.540Z,25.27
2022-11-14T06:37:54.241Z,20.92
2022-11-14T06:40:39.677Z,24.33
2022-11-14T06:43:25.148Z,24.35
2022-11-14T06:46:12.783Z,22.33
2022-11-14T06:48:58.320Z,23.00
2022-11-14T06:51:43.675Z,21.92
2022-11-14T06:54:28.953Z,20.48
2022-11-14T06:57:14.293Z,20.85
2022-11-14T06:59:59.579Z,22.58
2022-11-14T07:02:49.015Z,24.67
2022-11-14T07:05:34.403Z,25.42
2022-11-14T07:08:21.192Z,28.23
2022-11-14T07:11:12.468Z,32.70
2022-11-14T07:14:02.965Z,29.02
2022-11-14T07:16:48.716Z,31.55
2022-11-14T07:19:34.113Z,31.73
2022-11-14T07:22:19.807Z,29.20
2022-11-14T07:25:05.706Z,34.58
2022-11-14T07:27:51.238Z,25.33
2022-11-14T07:33:22.734Z,26.20
2022-11-14T07:38:54.522Z,23.73
2022-11-14T07:41:41.014Z,25.33
2022-11-14T07:44:26.712Z,26.38
2022-11-14T07:47:12.175Z,29.90
2022-11-14T07:49:57.793Z,24.73
2022-11-14T07:55:28.838Z,23.00
2022-11-14T07:58:14.615Z,21.27
2022-11-14T08:01:04.753Z,19.92
2022-11-14T08:03:50.195Z,24.05
2022-11-14T08:07:08.507Z,21.48
2022-11-14T08:09:54.308Z,23.35
2022-11-14T08:15:26.265Z,22.98
2022-11-14T08:18:11.536Z,25.50
2022-11-14T08:20:57.735Z,32.55
2022-11-14T08:23:45.345Z,31.00
2022-11-14T08:26:34.271Z,27.05
2022-11-14T08:29:20.351Z,30.25
2022-11-14T08:32:05.947Z,34.22
2022-11-14T08:34:51.260Z,34.63
2022-11-14T08:37:36.632Z,41.60
2022-11-14T08:43:07.237Z,35.17
2022-11-14T08:45:52.330Z,37.97
2022-11-14T08:48:37.641Z,38.85
2022-11-14T08:51:23.020Z,40.47
2022-11-14T08:54:08.178Z,44.83
2022-11-14T08:56:53.898Z,45.83
2022-11-14T09:02:24.469Z,49.63
2022-11-14T09:05:10.129Z,58.90
2022-11-14T09:07:55.557Z,49.63
2022-11-14T09:10:41.087Z,46.55
2022-11-14T09:13:27.638Z,53.85
2022-11-14T09:16:12.979Z,48.55
2022-11-14T09:18:58.359Z,50.83
2022-11-14T09:21:43.874Z,55.00
2022-11-14T09:27:14.834Z,45.85
2022-11-14T09:30:00.046Z,44.70
2022-11-14T09:32:45.537Z,48.97
2022-11-14T09:35:32.000Z,58.08
2022-11-14T09:38:17.703Z,54.95
2022-11-14T09:41:09.430Z,47.00
2022-11-14T09:44:19.129Z,48.38
2022-11-14T09:47:16.649Z,48.13
2022-11-14T09:50:12.063Z,40.85
2022-11-14T09:53:09.674Z,40.67
2022-11-14T09:55:54.900Z,48.63
2022-11-14T09:58:41.930Z,50.38
2022-11-14T10:01:49.532Z,54.03
2022-11-14T10:05:10.867Z,50.97
2022-11-14T10:08:02.556Z,46.90
2022-11-14T10:10:53.326Z,48.42
2022-11-14T10:13:56.778Z,58.92
2022-11-14T10:17:09.312Z,56.08
2022-11-14T10:20:27.120Z,55.17
2022-11-14T10:23:47.927Z,48.83
2022-11-14T10:26:46.969Z,50.20
2022-11-14T10:29:39.004Z,45.67
2022-11-14T10:33:01.146Z,53.95
2022-11-14T10:36:05.538Z,53.60
2022-11-14T10:39:01.134Z,60.20
2022-11-14T10:41:57.774Z,49.78
2022-11-14T10:45:13.198Z,47.35
2022-11-14T10:48:03.607Z,51.42
2022-11-14T10:50:57.801Z,50.65
2022-11-14T10:53:43.428Z,49.35
2022-11-14T10:56:28.889Z,52.10
2022-11-14T10:59:14.454Z,57.75
2022-11-14T11:01:59.915Z,60.38
2022-11-14T11:04:46.372Z,56.83
2022-11-14T11:07:50.198Z,44.05
2022-11-14T11:11:00.424Z,46.63
2022-11-14T11:13:55.688Z,47.15
2022-11-14T11:16:41.023Z,42.80
2022-11-14T11:19:27.840Z,41.13
2022-11-14T11:22:35.265Z,45.40
2022-11-14T11:25:26.831Z,49.45
2022-11-14T11:28:21.625Z,48.10
2022-11-14T11:31:11.495Z,47.30
2022-11-14T11:34:03.311Z,50.97
2022-11-14T11:37:03.067Z,50.15
2022-11-14T11:39:55.981Z,51.00
2022-11-14T11:43:36.702Z,58.75
2022-11-14T11:46:03.325Z,57.00
2022-11-14T11:48:56.393Z,54.80
2022-11-14T11:51:45.705Z,50.47
2022-11-14T11:54:44.547Z,49.20
2022-11-14T11:58:08.634Z,51.10
2022-11-14T12:00:57.094Z,50.92
2022-11-14T12:03:49.108Z,51.80
2022-11-14T12:06:45.133Z,48.35
2022-11-14T12:10:08.919Z,51.05
2022-11-14T12:12:44.064Z,47.13
2022-11-14T12:16:06.565Z,49.33
2022-11-14T12:19:23.205Z,40.75
2022-11-14T12:22:33.194Z,47.83
2022-11-14T12:25:55.779Z,52.47
2022-11-14T12:28:59.523Z,53.08
2022-11-14T12:31:46.797Z,49.47
2022-11-14T12:34:37.994Z,52.95
2022-11-14T12:37:36.314Z,55.95
2022-11-14T12:40:30.179Z,48.20
2022-11-14T12:43:36.762Z,45.92
2022-11-14T12:46:22.478Z,45.17
2022-11-14T12:49:45.459Z,48.95
2022-11-14T12:52:46.375Z,50.83
2022-11-14T12:55:31.578Z,46.72
2022-11-14T12:58:22.920Z,43.20
2022-11-14T13:01:25.622Z,43.03
2022-11-14T13:04:32.345Z,36.45
2022-11-14T13:07:34.152Z,46.28
2022-11-14T13:10:28.047Z,42.95
2022-11-14T13:13:36.148Z,41.22
2022-11-14T13:16:49.149Z,41.67
2022-11-14T13:19:53.195Z,47.10
2022-11-14T13:22:46.696Z,37.70
2022-11-14T13:25:32.652Z,43.67
2022-11-14T13:28:48.226Z,39.63
2022-11-14T13:31:36.458Z,38.10
2022-11-14T13:34:43.760Z,42.55
2022-11-14T13:37:42.884Z,50.08
2022-11-14T13:40:40.087Z,37.17
2022-11-14T13:43:49.695Z,36.83
2022-11-14T13:47:23.155Z,37.75
2022-11-14T13:50:14.369Z,37.40
2022-11-14T13:52:59.986Z,34.88
2022-11-14T13:56:04.769Z,35.78
2022-11-14T13:59:05.480Z,39.53
2022-11-14T14:02:02.494Z,34.60
2022-11-14T14:04:47.827Z,37.28
2022-11-14T14:07:57.488Z,39.65
2022-11-14T14:10:51.912Z,35.95
2022-11-14T14:13:37.223Z,32.00
2022-11-14T14:16:44.590Z,40.83
2022-11-14T14:19:56.375Z,38.28
2022-11-14T14:22:55.222Z,33.83
2022-11-14T14:26:00.198Z,36.33
2022-11-14T14:28:53.498Z,39.95
2022-11-14T14:31:41.651Z,46.10
2022-11-14T14:34:31.907Z,38.17
2022-11-14T14:37:19.596Z,42.17
2022-11-14T14:40:08.797Z,40.53
2022-11-14T14:42:57.360Z,37.25
2022-11-14T14:45:51.641Z,39.15
2022-11-14T14:48:42.512Z,34.72
2022-11-14T14:51:35.796Z,38.08
2022-11-14T14:54:26.404Z,37.97
2022-11-14T14:57:21.297Z,38.92
2022-11-14T15:00:29.793Z,40.10
2022-11-14T15:03:15.468Z,42.53
2022-11-14T15:06:03.272Z,37.67
2022-11-14T15:08:49.630Z,40.05
2022-11-14T15:11:39.845Z,37.03
2022-11-14T15:14:28.697Z,36.38
2022-11-14T15:17:15.251Z,39.25
2022-11-14T15:20:00.612Z,39.17
2022-11-14T15:25:47.929Z,36.35
2022-11-14T15:28:34.271Z,37.63
2022-11-14T15:31:22.141Z,36.97
2022-11-14T15:34:24.609Z,33.60
2022-11-14T15:37:19.134Z,33.45
2022-11-14T15:40:22.195Z,36.08
2022-11-14T15:43:40.123Z,32.40
2022-11-14T15:46:35.714Z,33.97
2022-11-14T15:49:24.825Z,33.05
2022-11-14T15:52:21.179Z,30.20
2022-11-14T15:55:21.692Z,34.25
2022-11-14T15:58:29.023Z,27.80
2022-11-14T16:01:24.111Z,32.92
2022-11-14T16:04:18.744Z,35.38
2022-11-14T16:07:04.312Z,37.40
2022-11-14T16:09:50.585Z,43.88
2022-11-14T16:12:36.191Z,34.20
2022-11-14T16:15:22.039Z,35.67
2022-11-14T16:18:07.666Z,36.45
2022-11-14T16:20:58.750Z,43.45
2022-11-14T16:23:44.242Z,36.90
2022-11-14T16:26:29.840Z,40.58
2022-11-14T16:32:01.322Z,34.22
2022-11-14T16:37:32.279Z,36.45
2022-11-14T16:40:21.615Z,37.70
2022-11-14T16:43:06.788Z,34.92
2022-11-14T16:45:52.208Z,37.72
2022-11-14T16:48:37.797Z,30.25
2022-11-14T16:51:50.532Z,32.97
2022-11-14T16:54:28.733Z,38.55
2022-11-14T16:57:14.291Z,33.33
2022-11-14T16:59:59.500Z,37.92
2022-11-14T17:02:45.768Z,32.47
2022-11-14T17:05:31.204Z,33.53
2022-11-14T17:08:17.027Z,32.83
2022-11-14T17:11:09.665Z,27.98
2022-11-14T17:13:56.697Z,29.70
2022-11-14T17:16:41.713Z,29.48
2022-11-14T17:19:27.104Z,26.80
2022-11-14T17:22:16.910Z,33.85
2022-11-14T17:25:04.623Z,25.70
2022-11-14T17:27:50.060Z,27.65
2022-11-14T17:30:40.054Z,24.60
2022-11-14T17:33:25.600Z,25.80
2022-11-14T17:36:11.679Z,20.73
2022-11-14T17:38:58.603Z,23.38
2022-11-14T17:41:44.525Z,19.92
2022-11-14T17:44:30.086Z,20.85
2022-11-14T17:47:15.673Z,19.92
2022-11-14T17:50:01.494Z,22.83
2022-11-14T17:52:46.973Z,19.27
2022-11-14T17:55:32.451Z,16.73
2022-11-14T17:58:17.984Z,19.02
2022-11-14T18:01:19.241Z,15.02
2022-11-14T18:04:06.293Z,17.08
2022-11-14T18:06:52.360Z,18.42
2022-11-14T18:09:38.459Z,17.33
2022-11-14T18:12:24.016Z,20.77
2022-11-14T18:15:09.662Z,22.30
2022-11-14T18:17:54.971Z,23.23
2022-11-14T18:20:40.491Z,19.17
2022-11-14T18:23:25.769Z,22.20
2022-11-14T18:26:14.060Z,19.73
2022-11-14T18:29:04.505Z,23.52
2022-11-14T18:31:49.814Z,21.48
2022-11-14T18:34:38.597Z,23.38
2022-11-14T18:37:23.799Z,21.50
2022-11-14T18:40:16.246Z,22.85
2022-11-14T18:43:02.225Z,20.73
2022-11-14T18:48:33.381Z,22.33
2022-11-14T18:54:16.443Z,22.92
2022-11-14T18:57:01.914Z,24.52
2022-11-14T18:59:47.155Z,23.58
2022-11-14T19:02:32.757Z,22.63
2022-11-14T19:05:18.019Z,19.02
2022-11-14T19:08:05.413Z,22.83
2022-11-14T19:10:51.024Z,18.52
2022-11-14T19:16:22.402Z,25.50
2022-11-14T19:19:08.410Z,24.92
2022-11-14T19:21:53.761Z,23.95
2022-11-14T19:24:43.001Z,21.70
2022-11-14T19:27:29.026Z,22.95
2022-11-14T19:35:48.287Z,22.70
2022-11-14T19:38:34.011Z,20.77
2022-11-14T19:41:21.977Z,20.15
2022-11-14T19:44:07.730Z,19.67
2022-11-14T19:46:52.829Z,21.52
2022-11-14T19:49:38.684Z,20.80
2022-11-14T19:52:24.316Z,19.10
2022-11-14T19:55:09.819Z,18.00
2022-11-14T19:57:55.400Z,19.58
2022-11-14T20:00:40.702Z,24.42
2022-11-14T20:03:25.854Z,20.50
2022-11-14T20:06:16.951Z,20.88
2022-11-14T20:09:07.853Z,21.08
2022-11-14T20:11:53.033Z,20.80
2022-11-14T20:14:38.568Z,20.27
2022-11-14T20:17:24.469Z,22.45
2022-11-14T20:20:10.017Z,22.05
2022-11-14T20:25:41.121Z,19.45
2022-11-14T20:31:17.145Z,17.42
2022-11-14T20:34:02.704Z,19.80
2022-11-14T20:39:53.655Z,25.20
2022-11-14T20:42:38.717Z,21.15
2022-11-14T20:45:24.625Z,18.40
2022-11-14T20:51:08.912Z,20.73
2022-11-14T20:53:55.540Z,22.13
2022-11-14T20:56:40.807Z,18.02
2022-11-14T20:59:26.110Z,21.40
2022-11-14T21:02:15.118Z,16.70
2022-11-14T21:05:01.413Z,17.30
2022-11-14T21:07:47.162Z,16.00
2022-11-14T21:13:55.585Z,16.42
2022-11-14T21:16:41.338Z,17.27
2022-11-14T21:19:27.136Z,16.27
2022-11-14T21:22:13.530Z,14.65
2022-11-14T21:24:59.133Z,15.57
2022-11-14T21:27:44.901Z,15.85
2022-11-14T21:30:34.721Z,16.15
2022-11-14T21:33:20.142Z,15.73
2022-11-14T21:36:30.058Z,13.23
2022-11-14T21:39:16.910Z,14.15
2022-11-14T21:42:03.077Z,17.83
2022-11-14T21:44:48.442Z,17.63
2022-11-14T21:47:34.450Z,15.90
2022-11-14T21:50:19.737Z,16.35
2022-11-14T21:53:15.960Z,20.83
2022-11-14T21:56:12.146Z,19.42
2022-11-14T21:59:14.416Z,20.48
2022-11-14T22:02:18.504Z,21.20
2022-11-14T22:05:04.115Z,20.73
2022-11-14T22:10:34.677Z,20.90
2022-11-14T22:13:20.328Z,25.67
2022-11-14T22:16:06.738Z,24.75
2022-11-14T22:18:52.612Z,27.25
2022-11-14T22:21:38.253Z,23.92
2022-11-14T22:24:23.918Z,25.48
2022-11-14T22:27:09.181Z,24.45
2022-11-14T22:29:54.361Z,24.02
2022-11-14T22:32:39.905Z,29.58
2022-11-14T22:35:24.895Z,23.02
2022-11-14T22:38:10.132Z,23.52
2022-11-14T22:40:57.199Z,22.42
2022-11-14T22:43:42.942Z,18.95
2022-11-14T22:46:29.252Z,20.85
2022-11-14T22:49:19.714Z,19.95
2022-11-14T22:52:06.561Z,18.13
2022-11-14T22:54:51.798Z,19.15
2022-11-14T22:57:37.378Z,18.17
2022-11-14T23:00:22.997Z,18.92
2022-11-14T23:03:08.660Z,16.27
2022-11-14T23:05:53.824Z,18.77
2022-11-14T23:08:39.819Z,16.98
2022-11-14T23:11:28.091Z,17.13
2022-11-14T23:14:14.401Z,17.95
2022-11-14T23:16:59.707Z,13.18
2022-11-14T23:19:45.155Z,16.52
2022-11-14T23:22:30.597Z,14.45
2022-11-14T23:25:16.305Z,14.13
2022-11-14T23:30:47.190Z,14.25
2022-11-14T23:33:33.746Z,13.77
2022-11-14T23:36:19.679Z,12.68
2022-11-14T23:41:50.240Z,14.02
2022-11-14T23:44:35.836Z,16.77
2022-11-14T23:50:06.876Z,13.45
2022-11-14T23:55:38.503Z,12.35
2022-11-14T23:58:24.779Z,11.30
